Huvudsida
METAR-TAF:

METAR-TAF

Flygplatser :

Gaya Airport

Gaya, Indien

latitud: 24-44-40N, longitud: 84-57-04E, höjd: 116 m

Aktuellt väderrapport

Denna rapport gjordes för 18 minuter sedan, klockan 21:00 UTC
Vind 3 kt från nordost
Temperatur 30°C
Fuktighet 66%
Tryck 998 hPa
Sikt: 4000 m
torrdis,

METAR: VEGY 252100Z 05003KT 4000 HZ NSC 30/23 Q0998

Tid: 02:48 (21:18 UTC)

Väderprognos

Denna rapport gjordes för 7 timmar och 18 minuter sedan, klockan 14:00 UTC
Prognos gäller från 25 kl. 15 UTC till 26 kl. 00 UTC
Vind kt från nord
Sikt: 4000 m
torrdis
Blir
från 25 kl. 20 UTC till 25 kl. 22 UTC
Vind 5 kt från ost
Sikt: 3000 m
Få moln på en höjd av 2000 ft
Spridda moln på en höjd av 10000 ft
fuktdis, torrdis,

TAF: VEGY 251400Z 2515/2600 00000KT 4000 HZ NSC BECMG 2520/2522 09005KT 3000 BR HZ FEW020 SCT100

Aktuella väderrapporter och prognoser från 4000 flygplatser (METAR- och TAF-rapporter).

De tillgängliga stationerna syns som gula och röda prickar på kartan.

För musen över prickarna för att se namnen på stationerna.

Klicka sedan för att få väderrapporter och prognoser.

För att ändra kartan: Klicka på de gröna knapparna med ett svart kors på för att zooma in; den gröna knappen med ett streck på för att zooma ut; eller på de gröna pilarna för angränsande kartor.


METAR-TAF: